Time;durP1;ratioP1;P1;durP2;ratioP2;P2;SDS_P1;SDS_P2;PMS_P1;PMS_P2;Temp;Humidity;BMP_temperature;BMP_pressure;BME280_temperature;BME280_humidity;BME280_pressure;Samples;Min_cycle;Max_cycle;Signal;HPM_P1;HPM_P2
2023/05/23 00:01:30;;;;;;;50.40;34.40;;;15.90;99.90;;;;;;476603;250;28800;-85
2023/05/23 00:03:32;;;;;;;55.17;37.53;;;15.80;99.90;;;;;;476606;250;28895;-82
2023/05/23 00:05:33;;;;;;;59.83;38.30;;;15.80;99.90;;;;;;476621;250;28803;-83
2023/05/23 00:07:34;;;;;;;57.03;37.20;;;15.80;99.90;;;;;;476649;250;28801;-84
2023/05/23 00:09:35;;;;;;;57.50;37.80;;;15.80;99.90;;;;;;476696;250;29856;-84
2023/05/23 00:11:37;;;;;;;51.70;35.07;;;15.80;99.90;;;;;;476677;250;29312;-84
2023/05/23 00:13:38;;;;;;;49.10;35.57;;;15.80;99.90;;;;;;476674;250;28780;-84
2023/05/23 00:15:40;;;;;;;60.53;40.10;;;15.70;99.90;;;;;;476648;250;28772;-87
2023/05/23 00:17:41;;;;;;;54.00;37.20;;;15.70;99.90;;;;;;476689;250;28848;-85
2023/05/23 00:19:44;;;;;;;54.00;35.77;;;15.70;99.90;;;;;;476724;250;28984;-85
2023/05/23 00:21:44;;;;;;;56.40;37.70;;;15.70;99.90;;;;;;476655;250;28964;-86
2023/05/23 00:23:44;;;;;;;49.87;30.57;;;15.70;99.90;;;;;;476610;250;28853;-85
2023/05/23 00:25:51;;;;;;;48.17;34.17;;;15.70;99.90;;;;;;476665;250;29243;-87
2023/05/23 00:27:50;;;;;;;46.47;30.83;;;15.60;99.90;;;;;;476578;250;28952;-87
2023/05/23 00:29:51;;;;;;;41.97;28.57;;;15.60;99.90;;;;;;476679;250;28856;-86
2023/05/23 00:31:52;;;;;;;45.93;28.20;;;15.60;99.90;;;;;;476694;250;28797;-86
2023/05/23 00:33:53;;;;;;;50.23;36.00;;;15.60;99.90;;;;;;476699;250;29292;-86
2023/05/23 00:35:55;;;;;;;53.17;35.80;;;15.60;99.90;;;;;;476694;250;29310;-84
2023/05/23 00:37:56;;;;;;;40.77;30.23;;;15.50;99.90;;;;;;476711;250;28795;-86
2023/05/23 00:39:57;;;;;;;51.93;36.60;;;15.60;99.90;;;;;;476728;250;28804;-86
2023/05/23 00:41:58;;;;;;;62.10;40.93;;;15.50;99.90;;;;;;476740;250;28918;-84
2023/05/23 00:44:00;;;;;;;49.87;35.10;;;15.50;99.90;;;;;;476737;250;28777;-85
2023/05/23 00:46:01;;;;;;;47.50;35.30;;;15.50;99.90;;;;;;476673;250;28803;-84
2023/05/23 00:48:02;;;;;;;54.70;34.40;;;15.50;99.90;;;;;;476751;250;29288;-85
2023/05/23 00:50:03;;;;;;;44.03;31.53;;;15.50;99.90;;;;;;476781;250;29477;-84
2023/05/23 00:52:05;;;;;;;45.13;32.10;;;15.40;99.90;;;;;;476766;250;28780;-86
2023/05/23 00:54:06;;;;;;;59.47;36.90;;;15.40;99.90;;;;;;476822;250;28922;-86
2023/05/23 00:56:07;;;;;;;49.50;32.40;;;15.40;99.90;;;;;;476763;250;28879;-83
2023/05/23 00:58:08;;;;;;;45.93;33.70;;;15.40;99.90;;;;;;476852;250;28772;-86
2023/05/23 01:00:10;;;;;;;48.43;32.37;;;15.40;99.90;;;;;;476822;250;28796;-85
2023/05/23 01:02:11;;;;;;;44.03;30.13;;;15.40;99.90;;;;;;476905;250;28903;-86
2023/05/23 01:04:12;;;;;;;43.40;30.90;;;15.40;99.90;;;;;;476810;250;29349;-82
2023/05/23 01:06:13;;;;;;;46.60;31.70;;;15.40;99.90;;;;;;476792;250;28876;-83
2023/05/23 01:08:15;;;;;;;48.77;34.80;;;15.40;99.90;;;;;;476788;250;28770;-85
2023/05/23 01:10:16;;;;;;;43.03;31.60;;;15.40;99.90;;;;;;476785;250;28784;-86
2023/05/23 01:12:17;;;;;;;50.13;36.57;;;15.40;99.90;;;;;;476694;250;28864;-86
2023/05/23 01:14:18;;;;;;;51.60;36.70;;;15.40;99.90;;;;;;476794;250;28765;-86
2023/05/23 01:16:20;;;;;;;40.70;31.13;;;15.50;99.90;;;;;;476688;250;28875;-84
2023/05/23 01:18:22;;;;;;;64.30;42.90;;;15.50;99.90;;;;;;476674;250;29360;-86
2023/05/23 01:20:22;;;;;;;51.97;35.23;;;15.50;99.90;;;;;;476651;250;28812;-85
2023/05/23 01:22:23;;;;;;;43.70;31.87;;;15.50;99.90;;;;;;476759;250;28851;-86
2023/05/23 01:24:25;;;;;;;46.97;32.40;;;15.40;99.90;;;;;;476696;250;28805;-85
2023/05/23 01:26:26;;;;;;;45.40;33.93;;;15.50;99.90;;;;;;476769;250;28801;-85
2023/05/23 01:28:27;;;;;;;51.83;36.77;;;15.50;99.90;;;;;;476714;250;28862;-86
2023/05/23 01:30:29;;;;;;;46.60;32.30;;;15.50;99.90;;;;;;476687;250;28869;-84
2023/05/23 01:32:30;;;;;;;56.17;38.10;;;15.50;99.90;;;;;;476657;250;29635;-82
2023/05/23 01:34:31;;;;;;;63.00;42.70;;;15.50;99.90;;;;;;476683;250;29267;-84
2023/05/23 01:36:34;;;;;;;49.57;34.33;;;15.50;99.90;;;;;;476631;250;28796;-85
2023/05/23 01:38:34;;;;;;;47.37;35.73;;;15.60;99.90;;;;;;476643;250;28883;-85
2023/05/23 01:40:35;;;;;;;52.83;37.50;;;15.60;99.90;;;;;;476638;250;28811;-84
2023/05/23 01:42:36;;;;;;;56.60;39.93;;;15.70;99.90;;;;;;476648;250;28907;-86
2023/05/23 01:44:38;;;;;;;68.57;44.43;;;15.60;99.90;;;;;;476627;250;28796;-86
2023/05/23 01:46:39;;;;;;;56.67;39.23;;;15.60;99.90;;;;;;476591;250;29358;-83
2023/05/23 01:48:40;;;;;;;47.97;35.20;;;15.70;99.90;;;;;;476661;250;29367;-85
2023/05/23 01:50:44;;;;;;;49.93;35.97;;;15.70;99.90;;;;;;476657;250;28792;-84
2023/05/23 01:52:42;;;;;;;48.70;35.87;;;15.80;99.90;;;;;;476531;250;28865;-85
2023/05/23 01:54:44;;;;;;;63.57;41.60;;;15.80;99.90;;;;;;476640;250;28872;-85
2023/05/23 01:56:45;;;;;;;42.87;34.10;;;15.70;99.90;;;;;;476627;250;28804;-84
2023/05/23 01:58:46;;;;;;;47.00;35.20;;;15.70;99.90;;;;;;476610;250;28887;-85
2023/05/23 02:00:47;;;;;;;52.00;37.20;;;15.70;99.90;;;;;;476572;250;29259;-85
2023/05/23 02:02:49;;;;;;;57.73;42.03;;;15.70;99.90;;;;;;476648;250;29295;-85
2023/05/23 02:04:50;;;;;;;51.00;36.30;;;15.70;99.90;;;;;;476563;250;28867;-85
2023/05/23 02:06:51;;;;;;;47.40;34.03;;;15.80;99.90;;;;;;476628;250;28893;-85
2023/05/23 02:08:52;;;;;;;48.00;33.50;;;15.80;99.90;;;;;;476636;250;28913;-85
2023/05/23 02:10:54;;;;;;;43.10;33.10;;;15.80;99.90;;;;;;476598;250;28800;-85
2023/05/23 02:12:55;;;;;;;43.60;31.00;;;15.80;99.90;;;;;;476667;250;28889;-85
2023/05/23 02:14:56;;;;;;;41.20;32.37;;;15.80;99.90;;;;;;476618;250;29274;-87
2023/05/23 02:16:59;;;;;;;41.87;31.50;;;15.90;99.90;;;;;;476591;250;29395;-85
2023/05/23 02:18:59;;;;;;;36.03;28.63;;;15.80;99.90;;;;;;476563;250;28800;-86
2023/05/23 02:21:00;;;;;;;35.17;28.17;;;15.90;99.90;;;;;;476611;250;28902;-86
2023/05/23 02:23:01;;;;;;;50.83;33.47;;;15.90;99.90;;;;;;476585;250;28814;-84
2023/05/23 02:25:02;;;;;;;49.93;34.97;;;15.90;99.90;;;;;;476632;250;28882;-86
2023/05/23 02:27:04;;;;;;;46.47;34.10;;;15.80;99.90;;;;;;476580;250;28889;-84
2023/05/23 02:29:05;;;;;;;48.30;34.90;;;15.70;99.90;;;;;;476642;250;29401;-86
2023/05/23 02:31:06;;;;;;;50.23;34.20;;;15.60;99.90;;;;;;476641;250;29260;-86
2023/05/23 02:33:08;;;;;;;41.70;29.80;;;15.60;99.90;;;;;;476685;250;28800;-83
2023/05/23 02:35:09;;;;;;;38.77;29.37;;;15.60;99.90;;;;;;476663;250;28830;-84
2023/05/23 02:37:10;;;;;;;49.83;35.90;;;15.60;99.90;;;;;;476715;250;28965;-84
2023/05/23 02:39:11;;;;;;;43.67;31.43;;;15.60;99.90;;;;;;476701;250;28800;-86
2023/05/23 02:41:13;;;;;;;39.90;29.70;;;15.70;99.90;;;;;;476605;250;28760;-85
2023/05/23 02:43:14;;;;;;;41.47;31.53;;;15.70;99.90;;;;;;476661;250;29249;-84
2023/05/23 02:45:15;;;;;;;39.13;28.93;;;15.70;99.90;;;;;;476641;250;29342;-85
2023/05/23 02:47:16;;;;;;;45.43;33.03;;;15.70;99.90;;;;;;476611;250;28824;-85
2023/05/23 02:49:18;;;;;;;41.37;31.77;;;15.60;99.90;;;;;;476638;250;28807;-86
2023/05/23 02:51:19;;;;;;;52.43;38.80;;;15.50;99.90;;;;;;476694;250;28863;-85
2023/05/23 02:53:21;;;;;;;48.43;33.60;;;15.40;99.90;;;;;;476701;250;28802;-85
2023/05/23 02:55:21;;;;;;;59.30;39.07;;;15.30;99.90;;;;;;476723;250;28882;-84
2023/05/23 02:57:23;;;;;;;48.30;34.73;;;15.40;99.90;;;;;;476765;250;29357;-85
2023/05/23 02:59:25;;;;;;;46.77;32.83;;;15.40;99.90;;;;;;476777;249;29607;-85
2023/05/23 03:01:25;;;;;;;49.87;35.90;;;15.30;99.90;;;;;;476775;250;28902;-83
2023/05/23 03:03:27;;;;;;;44.47;34.10;;;15.30;99.90;;;;;;476827;250;28900;-83
2023/05/23 03:05:28;;;;;;;47.10;34.03;;;15.30;99.90;;;;;;476773;250;28778;-86
2023/05/23 03:07:29;;;;;;;51.00;35.20;;;15.20;99.90;;;;;;476856;250;28798;-84
2023/05/23 03:09:30;;;;;;;61.60;39.90;;;15.20;99.90;;;;;;476880;250;28815;-84
2023/05/23 03:11:32;;;;;;;42.00;31.93;;;15.10;99.90;;;;;;476878;250;29365;-84
2023/05/23 03:13:33;;;;;;;53.03;36.63;;;15.10;99.90;;;;;;476902;250;29433;-82
2023/05/23 03:15:34;;;;;;;39.20;29.67;;;15.10;99.90;;;;;;476885;250;28811;-86
2023/05/23 03:17:35;;;;;;;50.80;37.10;;;15.10;99.90;;;;;;476875;250;28832;-83
2023/05/23 03:19:37;;;;;;;52.07;34.93;;;15.10;99.90;;;;;;476913;250;28878;-83
2023/05/23 03:21:38;;;;;;;52.03;35.40;;;15.00;99.90;;;;;;476858;250;28996;-86
2023/05/23 03:23:39;;;;;;;53.07;34.17;;;15.00;99.90;;;;;;476915;250;28896;-86
2023/05/23 03:25:40;;;;;;;50.60;35.20;;;15.00;99.90;;;;;;476949;250;29286;-85
2023/05/23 03:27:42;;;;;;;50.93;37.57;;;15.00;99.90;;;;;;476945;250;29229;-86
2023/05/23 03:29:43;;;;;;;46.20;32.53;;;14.90;99.90;;;;;;477032;250;28779;-85
2023/05/23 03:31:44;;;;;;;43.33;32.60;;;14.90;99.90;;;;;;477036;250;28966;-85
2023/05/23 03:33:45;;;;;;;42.30;32.70;;;14.90;99.90;;;;;;477041;250;28899;-84
2023/05/23 03:35:47;;;;;;;46.90;35.10;;;14.80;99.90;;;;;;477007;250;28862;-84
2023/05/23 03:37:48;;;;;;;52.40;36.90;;;14.80;99.90;;;;;;477043;250;28879;-84
2023/05/23 03:39:49;;;;;;;50.73;35.07;;;14.80;99.90;;;;;;477070;250;29309;-85
2023/05/23 03:41:50;;;;;;;41.63;31.37;;;14.80;99.90;;;;;;477083;250;29358;-86
2023/05/23 03:43:52;;;;;;;43.43;30.50;;;14.70;99.90;;;;;;477108;250;28995;-83
2023/05/23 03:45:53;;;;;;;48.30;34.50;;;14.70;99.90;;;;;;477090;250;28896;-84
2023/05/23 03:47:54;;;;;;;43.43;33.20;;;14.70;99.90;;;;;;477085;250;28989;-86
2023/05/23 03:49:55;;;;;;;45.83;31.93;;;14.70;99.90;;;;;;477162;250;28996;-86
2023/05/23 03:51:57;;;;;;;44.67;33.50;;;14.60;99.90;;;;;;477174;250;28891;-86
2023/05/23 03:53:58;;;;;;;48.03;34.60;;;14.60;99.90;;;;;;477189;250;28893;-83
2023/05/23 03:55:59;;;;;;;44.63;32.90;;;14.60;99.90;;;;;;477138;250;29567;-82
2023/05/23 03:58:00;;;;;;;39.80;30.37;;;14.50;99.90;;;;;;477111;250;29443;-85
2023/05/23 04:00:02;;;;;;;49.20;34.70;;;14.50;99.90;;;;;;477121;250;28902;-84
2023/05/23 04:02:03;;;;;;;45.20;32.63;;;14.50;99.90;;;;;;477098;250;28875;-86
2023/05/23 04:04:04;;;;;;;37.17;28.93;;;14.60;99.90;;;;;;477110;250;28969;-83
2023/05/23 04:06:05;;;;;;;37.33;26.97;;;14.60;99.90;;;;;;477089;250;28987;-85
2023/05/23 04:08:07;;;;;;;33.30;27.70;;;14.60;99.90;;;;;;477073;250;28860;-85
2023/05/23 04:10:08;;;;;;;41.00;31.67;;;14.60;99.90;;;;;;477055;250;29364;-83
2023/05/23 04:12:10;;;;;;;39.67;29.10;;;14.60;99.90;;;;;;477050;250;29469;-84
2023/05/23 04:14:11;;;;;;;37.23;26.97;;;14.60;99.90;;;;;;476981;250;28867;-81
2023/05/23 04:16:12;;;;;;;32.80;26.23;;;14.60;99.90;;;;;;477037;250;28915;-83
2023/05/23 04:18:13;;;;;;;36.93;25.90;;;14.60;99.90;;;;;;477055;250;28977;-85
2023/05/23 04:20:14;;;;;;;35.27;27.60;;;14.70;99.90;;;;;;477029;250;28887;-83
2023/05/23 04:22:16;;;;;;;34.03;26.67;;;14.70;99.90;;;;;;476989;250;28980;-84
2023/05/23 04:24:17;;;;;;;37.17;28.50;;;14.60;99.90;;;;;;476960;250;29242;-84
2023/05/23 04:26:19;;;;;;;41.27;29.83;;;14.70;99.90;;;;;;476884;250;29477;-84
2023/05/23 04:28:19;;;;;;;31.00;23.97;;;14.60;99.90;;;;;;476904;250;28899;-86
2023/05/23 04:30:21;;;;;;;30.97;23.10;;;14.70;99.90;;;;;;477082;250;28805;-86
2023/05/23 04:32:22;;;;;;;30.07;24.00;;;14.70;99.90;;;;;;476885;250;28965;-86
2023/05/23 04:34:23;;;;;;;33.30;25.40;;;14.70;99.90;;;;;;476815;250;28796;-83
2023/05/23 04:36:24;;;;;;;33.17;25.80;;;14.70;99.90;;;;;;476804;250;28936;-83
2023/05/23 04:38:26;;;;;;;29.63;24.83;;;14.70;99.90;;;;;;476824;250;29318;-86
2023/05/23 04:40:27;;;;;;;39.50;26.00;;;14.70;99.90;;;;;;476813;250;29468;-85
2023/05/23 04:42:29;;;;;;;35.20;25.73;;;14.60;99.90;;;;;;476788;250;28879;-85
2023/05/23 04:44:29;;;;;;;38.03;25.80;;;14.70;99.90;;;;;;476810;250;28800;-83
2023/05/23 04:46:31;;;;;;;34.17;27.20;;;14.70;99.90;;;;;;476817;250;28800;-83
2023/05/23 04:48:33;;;;;;;33.47;24.97;;;14.60;99.90;;;;;;476848;250;28868;-85
2023/05/23 04:50:34;;;;;;;32.43;24.87;;;14.60;99.90;;;;;;476741;250;28903;-86
2023/05/23 04:52:34;;;;;;;30.47;23.27;;;14.50;99.90;;;;;;476804;250;29362;-85
2023/05/23 04:54:36;;;;;;;35.70;23.53;;;14.50;99.90;;;;;;476855;250;29308;-85
2023/05/23 04:56:37;;;;;;;36.23;26.53;;;14.60;99.90;;;;;;476833;250;28810;-84
2023/05/23 04:58:40;;;;;;;37.90;25.90;;;14.60;99.90;;;;;;476814;250;28781;-85
2023/05/23 05:00:40;;;;;;;35.13;25.30;;;14.50;99.90;;;;;;476823;250;28783;-84
2023/05/23 05:02:41;;;;;;;33.70;25.20;;;14.60;99.90;;;;;;476837;250;28971;-87
2023/05/23 05:04:42;;;;;;;31.10;23.67;;;14.60;99.90;;;;;;476874;250;28836;-86
2023/05/23 05:06:43;;;;;;;32.67;23.77;;;14.60;99.90;;;;;;476903;250;28902;-88
2023/05/23 05:08:44;;;;;;;32.87;24.90;;;14.70;99.90;;;;;;476873;250;29245;-86
2023/05/23 05:10:46;;;;;;;32.47;23.43;;;14.70;99.90;;;;;;476871;250;28800;-85
2023/05/23 05:12:50;;;;;;;34.10;25.33;;;14.70;99.90;;;;;;476860;250;28791;-84
2023/05/23 05:14:51;;;;;;;41.73;25.83;;;14.70;99.90;;;;;;476849;250;29753;-86
2023/05/23 05:16:53;;;;;;;29.20;22.87;;;14.70;99.90;;;;;;476848;250;28861;-85
2023/05/23 05:18:53;;;;;;;30.23;21.60;;;14.60;99.90;;;;;;476788;250;28888;-85
2023/05/23 05:20:55;;;;;;;27.90;20.67;;;14.70;99.90;;;;;;476792;250;28793;-85
2023/05/23 05:22:59;;;;;;;33.40;21.70;;;14.80;99.90;;;;;;476820;250;29008;-85
2023/05/23 05:25:01;;;;;;;25.40;19.90;;;14.70;99.90;;;;;;476795;250;28981;-85
2023/05/23 05:27:01;;;;;;;28.63;21.70;;;14.60;99.90;;;;;;476776;250;28781;-86
2023/05/23 05:29:03;;;;;;;28.37;19.47;;;14.50;99.90;;;;;;476826;250;28900;-85
2023/05/23 05:31:04;;;;;;;32.00;21.13;;;14.60;99.90;;;;;;476826;250;29356;-83
2023/05/23 05:33:06;;;;;;;25.50;18.63;;;14.70;99.90;;;;;;476851;250;28979;-87
2023/05/23 05:35:07;;;;;;;30.33;20.90;;;14.60;99.90;;;;;;476745;250;28824;-85
2023/05/23 05:37:08;;;;;;;23.90;17.50;;;14.60;99.90;;;;;;476844;250;28776;-85
2023/05/23 05:39:09;;;;;;;23.47;17.50;;;14.50;99.90;;;;;;476811;250;28831;-87
2023/05/23 05:41:10;;;;;;;23.80;16.57;;;14.60;99.90;;;;;;476843;250;28804;-85
2023/05/23 05:43:11;;;;;;;23.70;16.60;;;14.60;99.90;;;;;;476808;250;28799;-86
2023/05/23 05:45:13;;;;;;;29.43;17.70;;;14.70;99.90;;;;;;476725;250;29246;-84
2023/05/23 05:47:14;;;;;;;19.33;15.30;;;14.70;99.90;;;;;;476708;250;28796;-83
2023/05/23 05:49:15;;;;;;;17.13;14.20;;;14.80;99.90;;;;;;476683;250;28786;-86
2023/05/23 05:51:17;;;;;;;21.33;16.17;;;14.80;99.90;;;;;;476713;250;28887;-84
2023/05/23 05:53:18;;;;;;;23.43;15.10;;;14.90;99.90;;;;;;476693;250;28788;-86
2023/05/23 05:55:19;;;;;;;18.80;14.97;;;14.80;99.90;;;;;;476709;250;28791;-85
2023/05/23 05:57:20;;;;;;;22.13;15.23;;;14.80;99.90;;;;;;476701;250;28820;-84
2023/05/23 05:59:21;;;;;;;19.73;13.97;;;14.80;99.90;;;;;;476685;250;29224;-85
2023/05/23 06:01:24;;;;;;;17.70;13.07;;;14.90;99.90;;;;;;476652;250;28798;-85
2023/05/23 06:03:24;;;;;;;18.80;13.03;;;14.90;99.90;;;;;;476603;250;28794;-87
2023/05/23 06:05:25;;;;;;;23.10;14.90;;;14.90;99.90;;;;;;476605;250;28836;-84
2023/05/23 06:07:26;;;;;;;18.70;14.33;;;15.00;99.90;;;;;;476613;250;28994;-84
2023/05/23 06:09:28;;;;;;;22.30;14.90;;;15.00;99.90;;;;;;476657;250;28882;-86
2023/05/23 06:11:29;;;;;;;19.63;14.20;;;14.90;99.90;;;;;;476618;250;28799;-84
2023/05/23 06:13:30;;;;;;;20.77;15.80;;;15.00;99.90;;;;;;476590;250;29227;-84
2023/05/23 06:15:31;;;;;;;19.80;14.83;;;14.90;99.90;;;;;;476534;250;29338;-86
2023/05/23 06:17:33;;;;;;;20.10;14.40;;;15.00;99.90;;;;;;476585;250;28866;-85
2023/05/23 06:19:34;;;;;;;22.97;14.33;;;15.10;99.90;;;;;;476593;250;28797;-85
2023/05/23 06:21:35;;;;;;;21.27;16.00;;;15.00;99.90;;;;;;476554;250;28817;-87
2023/05/23 06:23:36;;;;;;;17.70;12.60;;;14.80;99.90;;;;;;476624;250;28890;-85
2023/05/23 06:25:38;;;;;;;15.77;12.90;;;14.90;99.90;;;;;;476587;249;28790;-86
2023/05/23 06:27:39;;;;;;;24.20;14.83;;;14.90;99.90;;;;;;476541;250;29246;-85
2023/05/23 06:29:40;;;;;;;14.23;11.83;;;14.90;99.90;;;;;;476592;250;29387;-86
2023/05/23 06:31:42;;;;;;;17.53;13.20;;;15.00;99.90;;;;;;476568;250;28780;-84
2023/05/23 06:33:43;;;;;;;17.70;12.90;;;15.00;99.90;;;;;;476506;250;28888;-84
2023/05/23 06:35:44;;;;;;;19.23;14.53;;;15.00;99.90;;;;;;476529;250;28829;-85
2023/05/23 06:37:45;;;;;;;15.10;12.33;;;15.00;99.90;;;;;;476560;250;28806;-84
2023/05/23 06:39:47;;;;;;;16.73;12.63;;;14.90;99.90;;;;;;476521;250;28804;-85
2023/05/23 06:41:48;;;;;;;19.10;13.80;;;15.00;99.90;;;;;;476533;250;29332;-86
2023/05/23 06:43:49;;;;;;;16.77;12.73;;;15.00;99.90;;;;;;476512;250;29270;-83
2023/05/23 06:45:50;;;;;;;18.27;13.30;;;14.90;99.90;;;;;;476534;250;28810;-86
2023/05/23 06:47:52;;;;;;;18.03;13.60;;;14.90;99.90;;;;;;476545;250;28793;-85
2023/05/23 06:49:53;;;;;;;19.50;13.50;;;15.00;99.90;;;;;;476533;250;28786;-86
2023/05/23 06:51:54;;;;;;;16.60;12.30;;;15.00;99.90;;;;;;476455;250;28797;-85
2023/05/23 06:53:55;;;;;;;16.07;11.33;;;15.10;99.90;;;;;;476473;250;28849;-83
2023/05/23 06:55:57;;;;;;;17.43;12.73;;;15.30;99.90;;;;;;476455;250;29232;-86
2023/05/23 06:57:58;;;;;;;14.87;11.20;;;15.20;99.90;;;;;;476518;250;29252;-85
2023/05/23 06:59:59;;;;;;;12.70;10.37;;;15.10;99.90;;;;;;476498;250;28782;-86
2023/05/23 07:02:00;;;;;;;15.10;10.13;;;15.30;99.90;;;;;;476496;250;28896;-86
2023/05/23 07:04:02;;;;;;;13.40;10.50;;;15.40;99.90;;;;;;476443;250;28833;-85
2023/05/23 07:06:03;;;;;;;10.97;9.80;;;15.50;99.90;;;;;;476470;250;28800;-85
2023/05/23 07:08:05;;;;;;;11.60;9.50;;;15.60;99.90;;;;;;476431;250;28795;-84
2023/05/23 07:10:05;;;;;;;12.93;9.70;;;15.70;99.90;;;;;;476435;250;28781;-85
2023/05/23 07:12:07;;;;;;;14.07;9.93;;;15.60;99.90;;;;;;476449;250;29261;-86
2023/05/23 07:14:08;;;;;;;11.13;8.63;;;15.50;99.90;;;;;;476405;250;29337;-84
2023/05/23 07:16:09;;;;;;;11.70;9.70;;;15.40;99.90;;;;;;476406;250;28773;-86
2023/05/23 07:18:10;;;;;;;10.57;8.60;;;15.30;99.90;;;;;;476472;250;28776;-84
2023/05/23 07:20:12;;;;;;;11.83;9.63;;;15.20;99.90;;;;;;476446;250;28780;-85
2023/05/23 07:22:13;;;;;;;11.10;8.50;;;15.20;99.90;;;;;;476485;250;28872;-85
2023/05/23 07:24:14;;;;;;;11.60;9.27;;;15.20;99.90;;;;;;476472;249;28799;-82
2023/05/23 07:26:15;;;;;;;10.20;7.70;;;15.20;99.90;;;;;;476433;250;28852;-85
2023/05/23 07:28:17;;;;;;;11.03;8.17;;;15.20;99.90;;;;;;476456;250;28868;-83
2023/05/23 07:30:19;;;;;;;9.17;7.47;;;15.30;99.90;;;;;;476497;250;29409;-86
2023/05/23 07:32:19;;;;;;;8.40;7.50;;;15.10;99.90;;;;;;476480;250;29329;-84
2023/05/23 07:34:20;;;;;;;8.03;6.80;;;14.90;99.90;;;;;;476459;250;29330;-81
2023/05/23 07:36:22;;;;;;;7.57;6.70;;;15.10;99.90;;;;;;476464;250;28782;-86
2023/05/23 07:38:23;;;;;;;7.63;6.80;;;15.20;99.90;;;;;;476433;250;28822;-85
2023/05/23 07:40:24;;;;;;;8.67;5.80;;;15.30;99.90;;;;;;476408;250;28783;-85
2023/05/23 07:42:25;;;;;;;7.47;6.33;;;15.40;99.90;;;;;;476394;250;28857;-84
2023/05/23 07:44:27;;;;;;;8.20;6.00;;;15.40;99.90;;;;;;476396;250;28862;-83
2023/05/23 07:46:28;;;;;;;6.73;5.80;;;15.10;99.90;;;;;;476471;250;28868;-85
2023/05/23 07:48:30;;;;;;;6.33;5.53;;;15.00;99.90;;;;;;476485;250;28797;-85
2023/05/23 07:50:30;;;;;;;5.17;4.67;;;15.00;99.90;;;;;;476378;250;28857;-84
2023/05/23 07:52:32;;;;;;;6.13;5.53;;;15.10;99.90;;;;;;476411;250;28799;-85
2023/05/23 07:54:33;;;;;;;6.63;5.63;;;15.00;99.90;;;;;;476378;250;29259;-85
2023/05/23 07:56:37;;;;;;;9.57;5.87;;;15.20;99.90;;;;;;476421;250;29258;-87
2023/05/23 07:58:35;;;;;;;9.97;6.03;;;15.10;99.90;;;;;;476285;250;29286;-86
2023/05/23 08:00:37;;;;;;;6.17;5.53;;;15.10;99.90;;;;;;476403;250;28797;-85
2023/05/23 08:02:38;;;;;;;5.47;4.97;;;15.10;99.90;;;;;;476426;250;28765;-84
2023/05/23 08:04:39;;;;;;;5.30;4.80;;;15.40;99.90;;;;;;476380;250;28799;-83
2023/05/23 08:06:40;;;;;;;5.80;4.90;;;15.60;99.90;;;;;;476384;250;28775;-85
2023/05/23 08:08:42;;;;;;;5.93;4.93;;;15.60;99.90;;;;;;476459;250;28791;-84
2023/05/23 08:10:44;;;;;;;6.23;4.87;;;15.50;99.90;;;;;;476446;250;28767;-85
2023/05/23 08:12:44;;;;;;;5.83;4.80;;;15.40;99.90;;;;;;476449;250;28783;-86
2023/05/23 08:14:46;;;;;;;5.53;4.73;;;15.40;99.90;;;;;;476408;250;28822;-84
2023/05/23 08:16:47;;;;;;;5.43;4.93;;;15.50;99.90;;;;;;476417;250;28791;-87
2023/05/23 08:18:48;;;;;;;5.77;5.17;;;15.50;99.90;;;;;;476415;250;29284;-85
2023/05/23 08:20:49;;;;;;;5.70;5.10;;;15.20;99.90;;;;;;476394;250;29681;-85
2023/05/23 08:22:51;;;;;;;8.70;5.80;;;15.40;99.90;;;;;;476424;250;29231;-85
2023/05/23 08:24:52;;;;;;;5.13;4.63;;;15.20;99.90;;;;;;476362;250;28891;-83
2023/05/23 08:26:53;;;;;;;7.77;5.60;;;15.40;99.90;;;;;;476441;250;28855;-84
2023/05/23 08:28:54;;;;;;;6.27;5.47;;;15.60;99.90;;;;;;476402;250;28865;-84
2023/05/23 08:30:56;;;;;;;7.57;4.70;;;15.60;99.90;;;;;;476426;250;28769;-85
2023/05/23 08:32:57;;;;;;;5.67;5.00;;;15.50;99.90;;;;;;476411;250;28777;-83
2023/05/23 08:34:58;;;;;;;8.93;5.30;;;15.40;99.90;;;;;;476339;250;28866;-84
2023/05/23 08:37:00;;;;;;;8.03;5.47;;;15.30;99.90;;;;;;476407;250;28785;-85
2023/05/23 08:39:01;;;;;;;6.90;5.63;;;15.30;99.90;;;;;;476451;250;28788;-85
2023/05/23 08:41:02;;;;;;;7.90;5.00;;;15.40;99.90;;;;;;476468;250;28785;-85
2023/05/23 08:43:03;;;;;;;5.60;5.10;;;15.30;99.90;;;;;;476442;250;28865;-85
2023/05/23 08:45:04;;;;;;;6.50;5.30;;;15.30;99.90;;;;;;476440;250;29255;-84
2023/05/23 08:47:06;;;;;;;6.77;6.03;;;15.30;99.90;;;;;;476420;250;29236;-85
2023/05/23 08:49:07;;;;;;;7.30;6.37;;;15.10;99.90;;;;;;476408;250;29274;-84
2023/05/23 08:51:08;;;;;;;7.67;6.73;;;15.30;99.90;;;;;;476442;250;28811;-86
2023/05/23 08:53:09;;;;;;;6.30;5.70;;;15.40;99.90;;;;;;476388;250;28782;-85
2023/05/23 08:55:11;;;;;;;8.00;6.17;;;15.40;99.90;;;;;;476423;250;28780;-84
2023/05/23 08:57:12;;;;;;;8.40;6.43;;;15.40;99.90;;;;;;476480;250;28774;-85
2023/05/23 08:59:13;;;;;;;6.53;5.23;;;15.30;99.90;;;;;;476495;250;28867;-84
2023/05/23 09:01:17;;;;;;;7.00;6.30;;;15.20;99.90;;;;;;476497;250;28908;-85
2023/05/23 09:03:16;;;;;;;6.40;5.40;;;15.20;99.90;;;;;;476360;250;28793;-85
2023/05/23 09:05:17;;;;;;;7.27;5.70;;;15.20;99.90;;;;;;476274;250;28884;-84
2023/05/23 09:07:18;;;;;;;7.20;6.50;;;15.50;99.90;;;;;;476410;250;28789;-85
2023/05/23 09:09:19;;;;;;;7.33;6.50;;;15.90;99.90;;;;;;476391;250;29281;-84
2023/05/23 09:11:21;;;;;;;6.10;5.50;;;16.30;99.90;;;;;;476388;250;29787;-85
2023/05/23 09:13:22;;;;;;;7.03;6.03;;;16.50;99.90;;;;;;476386;250;29346;-84
2023/05/23 09:15:23;;;;;;;6.00;5.40;;;16.60;99.90;;;;;;476320;250;28784;-82
2023/05/23 09:17:24;;;;;;;6.20;5.60;;;16.90;99.90;;;;;;476307;250;28877;-85
2023/05/23 09:19:26;;;;;;;6.77;6.07;;;17.30;99.90;;;;;;476388;250;28796;-84
2023/05/23 09:21:27;;;;;;;6.23;5.63;;;17.40;99.90;;;;;;476365;250;28788;-84
2023/05/23 09:23:28;;;;;;;7.77;5.97;;;17.20;99.90;;;;;;476331;250;28818;-85
2023/05/23 09:25:29;;;;;;;6.53;5.93;;;17.30;99.90;;;;;;476290;250;28808;-82
2023/05/23 09:27:31;;;;;;;5.30;4.80;;;17.10;99.90;;;;;;476343;250;28892;-84
2023/05/23 09:29:32;;;;;;;5.90;5.07;;;17.00;99.90;;;;;;476302;250;28791;-84
2023/05/23 09:31:33;;;;;;;5.40;4.90;;;17.00;99.90;;;;;;476331;250;28863;-84
2023/05/23 09:33:35;;;;;;;5.57;4.87;;;16.80;99.90;;;;;;476352;250;29272;-85
2023/05/23 09:35:36;;;;;;;5.37;4.87;;;16.20;99.90;;;;;;476337;250;29256;-83
2023/05/23 09:37:38;;;;;;;5.60;5.10;;;15.90;99.90;;;;;;476379;250;29267;-85
2023/05/23 09:39:38;;;;;;;6.07;5.47;;;16.30;99.90;;;;;;476340;250;28875;-85
2023/05/23 09:41:39;;;;;;;5.93;5.20;;;16.50;99.90;;;;;;476393;250;28779;-84
2023/05/23 09:43:41;;;;;;;5.40;4.90;;;16.60;99.90;;;;;;476380;250;28805;-85
2023/05/23 09:45:42;;;;;;;5.80;5.30;;;16.70;99.90;;;;;;476326;250;28791;-84
2023/05/23 09:47:43;;;;;;;6.10;5.50;;;17.00;99.90;;;;;;476356;249;28863;-84
2023/05/23 09:49:44;;;;;;;6.53;4.90;;;17.00;99.90;;;;;;476346;250;28876;-84
2023/05/23 09:51:46;;;;;;;5.80;5.20;;;16.90;99.90;;;;;;476318;250;28842;-84
2023/05/23 09:53:47;;;;;;;5.67;5.17;;;17.00;99.90;;;;;;476335;250;28864;-84
2023/05/23 09:55:48;;;;;;;6.00;5.40;;;16.70;99.90;;;;;;476293;250;28788;-83
2023/05/23 09:57:49;;;;;;;5.87;5.37;;;16.80;99.90;;;;;;476342;250;29249;-85
2023/05/23 09:59:51;;;;;;;6.63;5.70;;;16.60;99.90;;;;;;476381;250;29234;-84
2023/05/23 10:01:52;;;;;;;5.73;5.13;;;16.70;99.90;;;;;;476386;250;29339;-84
2023/05/23 10:03:57;;;;;;;6.47;5.33;;;16.60;99.90;;;;;;476397;250;28887;-85
2023/05/23 10:05:57;;;;;;;4.97;4.57;;;16.50;99.90;;;;;;476329;250;28884;-84
2023/05/23 10:07:59;;;;;;;5.50;5.00;;;16.60;99.90;;;;;;476381;250;29336;-83
2023/05/23 10:10:00;;;;;;;5.20;4.70;;;16.70;99.90;;;;;;476352;250;29344;-84
2023/05/23 10:12:01;;;;;;;7.70;5.27;;;16.50;99.90;;;;;;476407;250;29239;-85
2023/05/23 10:14:02;;;;;;;5.70;5.20;;;16.40;99.90;;;;;;476379;249;29265;-82
2023/05/23 10:16:04;;;;;;;6.10;5.50;;;16.40;99.90;;;;;;476337;250;28771;-86
2023/05/23 10:18:05;;;;;;;5.13;4.63;;;16.20;99.90;;;;;;476379;250;28799;-84
2023/05/23 10:20:09;;;;;;;5.20;4.70;;;16.20;99.90;;;;;;476395;250;28770;-85